sensor_id;sensor_type;location;lat;lon;timestamp;temperature;humidity
1135;DHT22;556;53.550;10.048;2022-11-18T00:01:11;7.50;51.80
1135;DHT22;556;53.550;10.048;2022-11-18T00:03:39;7.60;51.90
1135;DHT22;556;53.550;10.048;2022-11-18T00:06:10;7.50;51.30
1135;DHT22;556;53.550;10.048;2022-11-18T00:08:38;7.60;51.90
1135;DHT22;556;53.550;10.048;2022-11-18T00:11:06;7.50;51.40
1135;DHT22;556;53.550;10.048;2022-11-18T00:13:33;7.50;51.90
1135;DHT22;556;53.550;10.048;2022-11-18T00:16:19;7.40;51.50
1135;DHT22;556;53.550;10.048;2022-11-18T00:18:46;7.40;51.70
1135;DHT22;556;53.550;10.048;2022-11-18T00:21:13;7.40;51.70
1135;DHT22;556;53.550;10.048;2022-11-18T00:23:40;7.30;51.60
1135;DHT22;556;53.550;10.048;2022-11-18T00:26:09;7.30;52.00
1135;DHT22;556;53.550;10.048;2022-11-18T00:28:37;7.30;51.70
1135;DHT22;556;53.550;10.048;2022-11-18T00:31:06;7.30;51.70
1135;DHT22;556;53.550;10.048;2022-11-18T00:33:35;7.30;51.70
1135;DHT22;556;53.550;10.048;2022-11-18T00:36:03;7.30;52.00
1135;DHT22;556;53.550;10.048;2022-11-18T00:38:30;7.30;51.60
1135;DHT22;556;53.550;10.048;2022-11-18T00:40:59;7.30;52.00
1135;DHT22;556;53.550;10.048;2022-11-18T00:43:26;7.30;52.10
1135;DHT22;556;53.550;10.048;2022-11-18T00:45:52;7.30;51.70
1135;DHT22;556;53.550;10.048;2022-11-18T00:48:20;7.20;51.70
1135;DHT22;556;53.550;10.048;2022-11-18T00:50:49;7.20;52.20
1135;DHT22;556;53.550;10.048;2022-11-18T00:53:17;7.20;51.70
1135;DHT22;556;53.550;10.048;2022-11-18T00:55:44;7.20;51.70
1135;DHT22;556;53.550;10.048;2022-11-18T00:58:11;7.10;51.60
1135;DHT22;556;53.550;10.048;2022-11-18T01:00:40;7.20;52.00
1135;DHT22;556;53.550;10.048;2022-11-18T01:03:08;7.20;52.10
1135;DHT22;556;53.550;10.048;2022-11-18T01:05:35;7.20;51.70
1135;DHT22;556;53.550;10.048;2022-11-18T01:10:33;7.10;51.60
1135;DHT22;556;53.550;10.048;2022-11-18T01:13:02;7.00;51.50
1135;DHT22;556;53.550;10.048;2022-11-18T01:15:45;7.00;51.70
1135;DHT22;556;53.550;10.048;2022-11-18T01:18:13;7.00;52.30
1135;DHT22;556;53.550;10.048;2022-11-18T01:20:40;6.90;51.80
1135;DHT22;556;53.550;10.048;2022-11-18T01:23:09;6.90;51.70
1135;DHT22;556;53.550;10.048;2022-11-18T01:25:37;6.90;52.00
1135;DHT22;556;53.550;10.048;2022-11-18T01:28:04;6.80;51.70
1135;DHT22;556;53.550;10.048;2022-11-18T01:30:33;6.80;51.70
1135;DHT22;556;53.550;10.048;2022-11-18T01:33:00;6.80;51.70
1135;DHT22;556;53.550;10.048;2022-11-18T01:35:28;6.80;51.70
1135;DHT22;556;53.550;10.048;2022-11-18T01:37:56;6.80;51.80
1135;DHT22;556;53.550;10.048;2022-11-18T01:40:25;6.80;51.80
1135;DHT22;556;53.550;10.048;2022-11-18T01:42:54;6.80;51.80
1135;DHT22;556;53.550;10.048;2022-11-18T01:47:56;6.80;51.60
1135;DHT22;556;53.550;10.048;2022-11-18T01:50:25;6.80;51.70
1135;DHT22;556;53.550;10.048;2022-11-18T01:52:56;6.80;52.10
1135;DHT22;556;53.550;10.048;2022-11-18T01:55:31;6.80;51.80
1135;DHT22;556;53.550;10.048;2022-11-18T01:58:05;6.80;51.60
1135;DHT22;556;53.550;10.048;2022-11-18T02:00:33;6.80;52.10
1135;DHT22;556;53.550;10.048;2022-11-18T02:03:01;6.70;51.70
1135;DHT22;556;53.550;10.048;2022-11-18T02:05:29;6.80;52.20
1135;DHT22;556;53.550;10.048;2022-11-18T02:07:59;6.70;52.10
1135;DHT22;556;53.550;10.048;2022-11-18T02:12:56;6.70;51.60
1135;DHT22;556;53.550;10.048;2022-11-18T02:15:34;6.70;51.70
1135;DHT22;556;53.550;10.048;2022-11-18T02:18:08;6.70;51.70
1135;DHT22;556;53.550;10.048;2022-11-18T02:20:38;6.80;52.10
1135;DHT22;556;53.550;10.048;2022-11-18T02:23:27;6.70;51.60
1135;DHT22;556;53.550;10.048;2022-11-18T02:26:27;6.80;51.60
1135;DHT22;556;53.550;10.048;2022-11-18T02:29:02;6.80;51.60
1135;DHT22;556;53.550;10.048;2022-11-18T02:31:35;6.80;52.00
1135;DHT22;556;53.550;10.048;2022-11-18T02:34:14;6.80;52.00
1135;DHT22;556;53.550;10.048;2022-11-18T02:36:47;6.90;52.00
1135;DHT22;556;53.550;10.048;2022-11-18T02:39:21;6.90;51.90
1135;DHT22;556;53.550;10.048;2022-11-18T02:41:53;6.90;52.00
1135;DHT22;556;53.550;10.048;2022-11-18T02:44:25;7.00;51.60
1135;DHT22;556;53.550;10.048;2022-11-18T02:46:58;7.00;52.00
1135;DHT22;556;53.550;10.048;2022-11-18T02:49:31;7.00;51.50
1135;DHT22;556;53.550;10.048;2022-11-18T02:52:01;7.00;51.50
1135;DHT22;556;53.550;10.048;2022-11-18T02:54:33;7.00;51.40
1135;DHT22;556;53.550;10.048;2022-11-18T02:57:03;7.00;51.50
1135;DHT22;556;53.550;10.048;2022-11-18T02:59:32;7.00;51.50
1135;DHT22;556;53.550;10.048;2022-11-18T03:01:59;6.80;51.30
1135;DHT22;556;53.550;10.048;2022-11-18T03:07:03;6.90;51.50
1135;DHT22;556;53.550;10.048;2022-11-18T03:09:33;6.90;51.60
1135;DHT22;556;53.550;10.048;2022-11-18T03:14:42;6.90;51.60
1135;DHT22;556;53.550;10.048;2022-11-18T03:17:12;6.90;51.60
1135;DHT22;556;53.550;10.048;2022-11-18T03:19:54;6.90;51.60
1135;DHT22;556;53.550;10.048;2022-11-18T03:22:29;7.00;52.10
1135;DHT22;556;53.550;10.048;2022-11-18T03:25:01;7.20;52.00
1135;DHT22;556;53.550;10.048;2022-11-18T03:27:32;7.00;51.50
1135;DHT22;556;53.550;10.048;2022-11-18T03:30:06;7.10;51.50
1135;DHT22;556;53.550;10.048;2022-11-18T03:35:07;7.00;51.30
1135;DHT22;556;53.550;10.048;2022-11-18T03:37:36;7.00;51.40
1135;DHT22;556;53.550;10.048;2022-11-18T03:40:10;7.10;51.50
1135;DHT22;556;53.550;10.048;2022-11-18T03:42:43;7.00;51.40
1135;DHT22;556;53.550;10.048;2022-11-18T03:45:16;7.00;51.50
1135;DHT22;556;53.550;10.048;2022-11-18T03:47:49;7.10;51.50
1135;DHT22;556;53.550;10.048;2022-11-18T03:50:21;7.00;51.40
1135;DHT22;556;53.550;10.048;2022-11-18T03:52:50;7.00;51.40
1135;DHT22;556;53.550;10.048;2022-11-18T03:55:22;7.00;51.40
1135;DHT22;556;53.550;10.048;2022-11-18T03:57:54;7.00;52.00
1135;DHT22;556;53.550;10.048;2022-11-18T04:00:25;7.00;52.00
1135;DHT22;556;53.550;10.048;2022-11-18T04:02:55;7.00;51.60
1135;DHT22;556;53.550;10.048;2022-11-18T04:07:55;7.00;51.50
1135;DHT22;556;53.550;10.048;2022-11-18T04:10:28;7.00;51.50
1135;DHT22;556;53.550;10.048;2022-11-18T04:13:00;7.00;51.50
1135;DHT22;556;53.550;10.048;2022-11-18T04:15:31;7.00;51.50
1135;DHT22;556;53.550;10.048;2022-11-18T04:17:58;6.90;51.40
1135;DHT22;556;53.550;10.048;2022-11-18T04:20:26;6.90;51.40
1135;DHT22;556;53.550;10.048;2022-11-18T04:22:53;6.90;51.50
1135;DHT22;556;53.550;10.048;2022-11-18T04:25:21;6.90;51.50
1135;DHT22;556;53.550;10.048;2022-11-18T04:27:49;6.90;51.50
1135;DHT22;556;53.550;10.048;2022-11-18T04:30:17;6.90;51.70
1135;DHT22;556;53.550;10.048;2022-11-18T04:32:46;6.90;51.50
1135;DHT22;556;53.550;10.048;2022-11-18T04:35:13;6.90;51.90
1135;DHT22;556;53.550;10.048;2022-11-18T04:37:40;6.90;51.50
1135;DHT22;556;53.550;10.048;2022-11-18T04:40:09;6.80;51.40
1135;DHT22;556;53.550;10.048;2022-11-18T04:42:36;6.90;52.00
1135;DHT22;556;53.550;10.048;2022-11-18T04:45:05;6.90;51.40
1135;DHT22;556;53.550;10.048;2022-11-18T04:47:32;6.90;51.50
1135;DHT22;556;53.550;10.048;2022-11-18T04:50:01;6.90;51.40
1135;DHT22;556;53.550;10.048;2022-11-18T04:52:28;6.90;51.80
1135;DHT22;556;53.550;10.048;2022-11-18T04:54:56;6.90;51.30
1135;DHT22;556;53.550;10.048;2022-11-18T04:57:23;6.90;51.40
1135;DHT22;556;53.550;10.048;2022-11-18T04:59:50;6.90;51.40
1135;DHT22;556;53.550;10.048;2022-11-18T05:02:17;6.90;51.40
1135;DHT22;556;53.550;10.048;2022-11-18T05:04:47;6.90;51.40
1135;DHT22;556;53.550;10.048;2022-11-18T05:07:16;6.90;51.90
1135;DHT22;556;53.550;10.048;2022-11-18T05:09:43;6.90;51.40
1135;DHT22;556;53.550;10.048;2022-11-18T05:12:13;6.90;51.90
1135;DHT22;556;53.550;10.048;2022-11-18T05:14:58;6.80;51.40
1135;DHT22;556;53.550;10.048;2022-11-18T05:17:25;6.80;51.40
1135;DHT22;556;53.550;10.048;2022-11-18T05:19:52;6.80;51.40
1135;DHT22;556;53.550;10.048;2022-11-18T05:22:21;6.90;51.80
1135;DHT22;556;53.550;10.048;2022-11-18T05:24:48;6.90;51.70
1135;DHT22;556;53.550;10.048;2022-11-18T05:27:15;6.80;51.20
1135;DHT22;556;53.550;10.048;2022-11-18T05:29:43;6.90;51.30
1135;DHT22;556;53.550;10.048;2022-11-18T05:32:10;6.90;51.40
1135;DHT22;556;53.550;10.048;2022-11-18T05:39:34;6.80;51.30
1135;DHT22;556;53.550;10.048;2022-11-18T05:42:01;6.70;51.30
1135;DHT22;556;53.550;10.048;2022-11-18T05:44:46;6.70;51.40
1135;DHT22;556;53.550;10.048;2022-11-18T05:47:14;6.70;51.50
1135;DHT22;556;53.550;10.048;2022-11-18T05:49:42;6.70;51.40
1135;DHT22;556;53.550;10.048;2022-11-18T05:52:09;6.70;51.70
1135;DHT22;556;53.550;10.048;2022-11-18T05:57:08;6.70;51.40
1135;DHT22;556;53.550;10.048;2022-11-18T05:59:36;6.70;51.20
1135;DHT22;556;53.550;10.048;2022-11-18T06:02:05;6.70;51.20
1135;DHT22;556;53.550;10.048;2022-11-18T06:04:38;6.70;51.60
1135;DHT22;556;53.550;10.048;2022-11-18T06:07:11;6.70;52.20
1135;DHT22;556;53.550;10.048;2022-11-18T06:09:45;6.50;51.30
1135;DHT22;556;53.550;10.048;2022-11-18T06:12:15;6.50;51.30
1135;DHT22;556;53.550;10.048;2022-11-18T06:14:48;6.50;51.30
1135;DHT22;556;53.550;10.048;2022-11-18T06:17:19;6.60;51.70
1135;DHT22;556;53.550;10.048;2022-11-18T06:19:48;6.60;51.20
1135;DHT22;556;53.550;10.048;2022-11-18T06:22:15;6.60;51.20
1135;DHT22;556;53.550;10.048;2022-11-18T06:24:44;6.50;51.20
1135;DHT22;556;53.550;10.048;2022-11-18T06:27:11;6.50;51.20
1135;DHT22;556;53.550;10.048;2022-11-18T06:32:07;6.50;51.20
1135;DHT22;556;53.550;10.048;2022-11-18T06:37:11;6.50;51.30
1135;DHT22;556;53.550;10.048;2022-11-18T06:39:39;6.50;51.70
1135;DHT22;556;53.550;10.048;2022-11-18T06:42:07;6.40;51.10
1135;DHT22;556;53.550;10.048;2022-11-18T06:44:35;6.50;51.20
1135;DHT22;556;53.550;10.048;2022-11-18T06:47:02;6.50;51.20
1135;DHT22;556;53.550;10.048;2022-11-18T06:51:57;6.50;51.20
1135;DHT22;556;53.550;10.048;2022-11-18T06:54:24;6.50;51.20
1135;DHT22;556;53.550;10.048;2022-11-18T06:59:20;6.50;51.20
1135;DHT22;556;53.550;10.048;2022-11-18T07:01:49;6.40;51.20
1135;DHT22;556;53.550;10.048;2022-11-18T07:04:18;6.40;51.20
1135;DHT22;556;53.550;10.048;2022-11-18T07:06:45;6.50;51.30
1135;DHT22;556;53.550;10.048;2022-11-18T07:11:40;6.50;50.90
1135;DHT22;556;53.550;10.048;2022-11-18T07:14:07;6.50;51.20
1135;DHT22;556;53.550;10.048;2022-11-18T07:16:36;6.60;51.20
1135;DHT22;556;53.550;10.048;2022-11-18T07:19:07;6.60;51.10
1135;DHT22;556;53.550;10.048;2022-11-18T07:21:34;6.60;51.10
1135;DHT22;556;53.550;10.048;2022-11-18T07:24:04;6.60;51.10
1135;DHT22;556;53.550;10.048;2022-11-18T07:26:31;6.60;51.10
1135;DHT22;556;53.550;10.048;2022-11-18T07:28:59;6.60;51.10
1135;DHT22;556;53.550;10.048;2022-11-18T07:31:26;6.70;51.20
1135;DHT22;556;53.550;10.048;2022-11-18T07:33:55;6.60;51.00
1135;DHT22;556;53.550;10.048;2022-11-18T07:36:25;6.60;51.00
1135;DHT22;556;53.550;10.048;2022-11-18T07:38:53;6.60;51.00
1135;DHT22;556;53.550;10.048;2022-11-18T07:41:22;6.60;51.00
1135;DHT22;556;53.550;10.048;2022-11-18T07:43:50;6.60;51.50
1135;DHT22;556;53.550;10.048;2022-11-18T07:46:19;6.60;51.00
1135;DHT22;556;53.550;10.048;2022-11-18T07:48:47;6.60;51.10
1135;DHT22;556;53.550;10.048;2022-11-18T07:51:18;6.60;51.10
1135;DHT22;556;53.550;10.048;2022-11-18T07:53:45;6.70;51.10
1135;DHT22;556;53.550;10.048;2022-11-18T07:56:14;6.70;51.10
1135;DHT22;556;53.550;10.048;2022-11-18T08:01:10;6.80;50.90
1135;DHT22;556;53.550;10.048;2022-11-18T08:03:38;6.80;50.90
1135;DHT22;556;53.550;10.048;2022-11-18T08:06:08;6.80;51.00
1135;DHT22;556;53.550;10.048;2022-11-18T08:08:36;6.80;51.00
1135;DHT22;556;53.550;10.048;2022-11-18T08:11:05;6.80;51.00
1135;DHT22;556;53.550;10.048;2022-11-18T08:13:34;6.80;51.00
1135;DHT22;556;53.550;10.048;2022-11-18T08:16:10;6.80;51.00
1135;DHT22;556;53.550;10.048;2022-11-18T08:18:38;6.80;51.00
1135;DHT22;556;53.550;10.048;2022-11-18T08:21:05;6.80;50.70
1135;DHT22;556;53.550;10.048;2022-11-18T08:23:32;6.90;50.90
1135;DHT22;556;53.550;10.048;2022-11-18T08:26:06;6.90;50.90
1135;DHT22;556;53.550;10.048;2022-11-18T08:28:36;6.90;50.90
1135;DHT22;556;53.550;10.048;2022-11-18T08:31:08;6.90;50.90
1135;DHT22;556;53.550;10.048;2022-11-18T08:33:35;6.90;51.40
1135;DHT22;556;53.550;10.048;2022-11-18T08:36:05;7.00;50.90
1135;DHT22;556;53.550;10.048;2022-11-18T08:38:32;6.90;50.80
1135;DHT22;556;53.550;10.048;2022-11-18T08:41:00;6.90;50.90
1135;DHT22;556;53.550;10.048;2022-11-18T08:43:29;7.00;50.90
1135;DHT22;556;53.550;10.048;2022-11-18T08:45:56;7.00;50.80
1135;DHT22;556;53.550;10.048;2022-11-18T08:48:24;7.10;50.80
1135;DHT22;556;53.550;10.048;2022-11-18T08:53:19;7.10;50.80
1135;DHT22;556;53.550;10.048;2022-11-18T08:55:47;7.20;50.80
1135;DHT22;556;53.550;10.048;2022-11-18T08:58:14;7.20;50.80
1135;DHT22;556;53.550;10.048;2022-11-18T09:00:43;7.30;50.70
1135;DHT22;556;53.550;10.048;2022-11-18T09:03:10;7.30;50.70
1135;DHT22;556;53.550;10.048;2022-11-18T09:05:38;7.30;50.70
1135;DHT22;556;53.550;10.048;2022-11-18T09:08:06;7.30;50.80
1135;DHT22;556;53.550;10.048;2022-11-18T09:10:36;7.30;50.70
1135;DHT22;556;53.550;10.048;2022-11-18T09:13:04;7.40;50.70
1135;DHT22;556;53.550;10.048;2022-11-18T09:15:31;7.40;50.70
1135;DHT22;556;53.550;10.048;2022-11-18T09:17:59;7.40;50.70
1135;DHT22;556;53.550;10.048;2022-11-18T09:20:26;7.40;50.60
1135;DHT22;556;53.550;10.048;2022-11-18T09:22:53;7.60;50.70
1135;DHT22;556;53.550;10.048;2022-11-18T09:27:50;7.60;50.50
1135;DHT22;556;53.550;10.048;2022-11-18T09:30:20;7.60;50.50
1135;DHT22;556;53.550;10.048;2022-11-18T09:32:48;7.60;50.40
1135;DHT22;556;53.550;10.048;2022-11-18T09:35:16;7.80;50.50
1135;DHT22;556;53.550;10.048;2022-11-18T09:37:43;7.80;50.40
1135;DHT22;556;53.550;10.048;2022-11-18T09:40:15;7.80;50.80
1135;DHT22;556;53.550;10.048;2022-11-18T09:42:52;7.90;50.40
1135;DHT22;556;53.550;10.048;2022-11-18T09:45:23;7.90;50.40
1135;DHT22;556;53.550;10.048;2022-11-18T09:47:56;9.50;52.00
1135;DHT22;556;53.550;10.048;2022-11-18T09:50:25;8.00;50.30
1135;DHT22;556;53.550;10.048;2022-11-18T09:53:00;8.00;50.30
1135;DHT22;556;53.550;10.048;2022-11-18T09:55:30;8.00;50.20
1135;DHT22;556;53.550;10.048;2022-11-18T09:57:58;8.10;50.20
1135;DHT22;556;53.550;10.048;2022-11-18T10:00:28;8.00;50.10
1135;DHT22;556;53.550;10.048;2022-11-18T10:02:59;8.10;50.30
1135;DHT22;556;53.550;10.048;2022-11-18T10:05:31;8.10;50.70
1135;DHT22;556;53.550;10.048;2022-11-18T10:08:18;8.20;50.10
1135;DHT22;556;53.550;10.048;2022-11-18T10:10:55;8.30;50.10
1135;DHT22;556;53.550;10.048;2022-11-18T10:13:45;8.30;50.00
1135;DHT22;556;53.550;10.048;2022-11-18T10:16:24;8.30;50.00
1135;DHT22;556;53.550;10.048;2022-11-18T10:18:59;8.30;50.40
1135;DHT22;556;53.550;10.048;2022-11-18T10:21:43;8.30;49.90
1135;DHT22;556;53.550;10.048;2022-11-18T10:24:17;8.40;49.90
1135;DHT22;556;53.550;10.048;2022-11-18T10:26:45;8.50;49.90
1135;DHT22;556;53.550;10.048;2022-11-18T10:29:13;8.50;49.80
1135;DHT22;556;53.550;10.048;2022-11-18T10:31:52;8.50;49.80
1135;DHT22;556;53.550;10.048;2022-11-18T10:34:21;8.50;49.80
1135;DHT22;556;53.550;10.048;2022-11-18T10:37:00;8.50;49.80
1135;DHT22;556;53.550;10.048;2022-11-18T10:39:31;8.60;49.80
1135;DHT22;556;53.550;10.048;2022-11-18T10:42:02;8.60;49.70
1135;DHT22;556;53.550;10.048;2022-11-18T10:44:35;8.60;49.80
1135;DHT22;556;53.550;10.048;2022-11-18T10:47:33;8.70;49.80
1135;DHT22;556;53.550;10.048;2022-11-18T10:50:31;8.80;49.60
1135;DHT22;556;53.550;10.048;2022-11-18T10:53:02;8.80;50.10
1135;DHT22;556;53.550;10.048;2022-11-18T10:55:30;8.90;49.60
1135;DHT22;556;53.550;10.048;2022-11-18T10:58:02;9.00;49.50
1135;DHT22;556;53.550;10.048;2022-11-18T11:03:30;9.10;49.50
1135;DHT22;556;53.550;10.048;2022-11-18T11:06:21;9.00;49.50
1135;DHT22;556;53.550;10.048;2022-11-18T11:08:56;9.10;49.60
1135;DHT22;556;53.550;10.048;2022-11-18T11:11:26;9.00;49.40
1135;DHT22;556;53.550;10.048;2022-11-18T11:14:06;9.00;49.30
1135;DHT22;556;53.550;10.048;2022-11-18T11:16:42;8.90;49.30
1135;DHT22;556;53.550;10.048;2022-11-18T11:19:14;8.90;49.40
1135;DHT22;556;53.550;10.048;2022-11-18T11:24:13;8.80;49.40
1135;DHT22;556;53.550;10.048;2022-11-18T11:26:48;8.80;49.20
1135;DHT22;556;53.550;10.048;2022-11-18T11:29:24;8.70;49.20
1135;DHT22;556;53.550;10.048;2022-11-18T11:32:02;8.70;49.20
1135;DHT22;556;53.550;10.048;2022-11-18T11:34:39;8.70;49.20
1135;DHT22;556;53.550;10.048;2022-11-18T11:37:15;8.60;49.20
1135;DHT22;556;53.550;10.048;2022-11-18T11:42:31;8.60;49.10
1135;DHT22;556;53.550;10.048;2022-11-18T11:45:16;8.70;49.10
1135;DHT22;556;53.550;10.048;2022-11-18T11:47:58;8.60;49.00
1135;DHT22;556;53.550;10.048;2022-11-18T11:50:38;8.60;49.00
1135;DHT22;556;53.550;10.048;2022-11-18T11:53:26;8.60;49.10
1135;DHT22;556;53.550;10.048;2022-11-18T11:56:07;8.70;49.00
1135;DHT22;556;53.550;10.048;2022-11-18T12:03:50;8.80;48.80
1135;DHT22;556;53.550;10.048;2022-11-18T12:06:19;8.80;48.70
1135;DHT22;556;53.550;10.048;2022-11-18T12:08:59;8.80;48.80
1135;DHT22;556;53.550;10.048;2022-11-18T12:11:35;8.90;48.90
1135;DHT22;556;53.550;10.048;2022-11-18T12:14:05;8.90;49.30
1135;DHT22;556;53.550;10.048;2022-11-18T12:16:41;9.00;48.60
1135;DHT22;556;53.550;10.048;2022-11-18T12:19:12;9.00;48.60
1135;DHT22;556;53.550;10.048;2022-11-18T12:21:57;9.00;48.60
1135;DHT22;556;53.550;10.048;2022-11-18T12:24:33;9.00;48.50
1135;DHT22;556;53.550;10.048;2022-11-18T12:27:04;9.00;48.50
1135;DHT22;556;53.550;10.048;2022-11-18T12:29:40;9.00;48.50
1135;DHT22;556;53.550;10.048;2022-11-18T12:32:28;9.00;48.50
1135;DHT22;556;53.550;10.048;2022-11-18T12:34:58;9.00;48.50
1135;DHT22;556;53.550;10.048;2022-11-18T12:37:56;9.00;48.60
1135;DHT22;556;53.550;10.048;2022-11-18T12:40:38;9.00;48.40
1135;DHT22;556;53.550;10.048;2022-11-18T12:46:45;9.20;48.40
1135;DHT22;556;53.550;10.048;2022-11-18T12:52:01;9.10;48.50
1135;DHT22;556;53.550;10.048;2022-11-18T12:57:00;9.00;48.50
1135;DHT22;556;53.550;10.048;2022-11-18T13:04:42;8.70;48.60
1135;DHT22;556;53.550;10.048;2022-11-18T13:07:11;8.50;48.60
1135;DHT22;556;53.550;10.048;2022-11-18T13:10:01;8.50;48.80
1135;DHT22;556;53.550;10.048;2022-11-18T13:12:37;8.40;48.70
1135;DHT22;556;53.550;10.048;2022-11-18T13:15:11;8.20;48.60
1135;DHT22;556;53.550;10.048;2022-11-18T13:20:33;8.00;48.60
1135;DHT22;556;53.550;10.048;2022-11-18T13:23:02;7.90;48.70
1135;DHT22;556;53.550;10.048;2022-11-18T13:25:48;7.70;48.60
1135;DHT22;556;53.550;10.048;2022-11-18T13:28:23;7.60;48.50
1135;DHT22;556;53.550;10.048;2022-11-18T13:30:59;7.60;48.50
1135;DHT22;556;53.550;10.048;2022-11-18T13:33:32;7.40;48.50
1135;DHT22;556;53.550;10.048;2022-11-18T13:36:00;7.30;48.50
1135;DHT22;556;53.550;10.048;2022-11-18T13:38:27;7.30;48.50
1135;DHT22;556;53.550;10.048;2022-11-18T13:40:55;7.30;48.50
1135;DHT22;556;53.550;10.048;2022-11-18T13:43:33;7.30;48.50
1135;DHT22;556;53.550;10.048;2022-11-18T13:46:09;7.30;48.40
1135;DHT22;556;53.550;10.048;2022-11-18T13:48:45;7.20;48.30
1135;DHT22;556;53.550;10.048;2022-11-18T13:51:14;7.30;48.30
1135;DHT22;556;53.550;10.048;2022-11-18T13:53:42;7.20;48.20
1135;DHT22;556;53.550;10.048;2022-11-18T13:56:16;7.20;48.20
1135;DHT22;556;53.550;10.048;2022-11-18T13:58:51;7.20;48.20
1135;DHT22;556;53.550;10.048;2022-11-18T14:01:24;7.10;48.10
1135;DHT22;556;53.550;10.048;2022-11-18T14:03:54;7.00;48.10
1135;DHT22;556;53.550;10.048;2022-11-18T14:06:26;7.00;48.10
1135;DHT22;556;53.550;10.048;2022-11-18T14:09:06;7.00;48.20
1135;DHT22;556;53.550;10.048;2022-11-18T14:11:35;6.90;48.10
1135;DHT22;556;53.550;10.048;2022-11-18T14:16:33;6.80;48.00
1135;DHT22;556;53.550;10.048;2022-11-18T14:19:02;6.80;48.00
1135;DHT22;556;53.550;10.048;2022-11-18T14:21:31;6.80;48.10
1135;DHT22;556;53.550;10.048;2022-11-18T14:24:00;6.80;48.00
1135;DHT22;556;53.550;10.048;2022-11-18T14:26:29;6.70;47.90
1135;DHT22;556;53.550;10.048;2022-11-18T14:28:59;6.70;48.00
1135;DHT22;556;53.550;10.048;2022-11-18T14:31:27;6.60;47.90
1135;DHT22;556;53.550;10.048;2022-11-18T14:34:15;6.60;47.90
1135;DHT22;556;53.550;10.048;2022-11-18T14:36:43;6.50;48.00
1135;DHT22;556;53.550;10.048;2022-11-18T14:39:20;6.40;47.90
1135;DHT22;556;53.550;10.048;2022-11-18T14:41:48;6.40;47.90
1135;DHT22;556;53.550;10.048;2022-11-18T14:44:16;6.30;47.90
1135;DHT22;556;53.550;10.048;2022-11-18T14:46:46;6.30;47.90
1135;DHT22;556;53.550;10.048;2022-11-18T14:49:16;6.20;47.80
1135;DHT22;556;53.550;10.048;2022-11-18T14:51:44;6.20;47.80
1135;DHT22;556;53.550;10.048;2022-11-18T14:54:12;6.20;47.90
1135;DHT22;556;53.550;10.048;2022-11-18T14:56:41;6.10;47.80
1135;DHT22;556;53.550;10.048;2022-11-18T14:59:11;6.10;47.80
1135;DHT22;556;53.550;10.048;2022-11-18T15:01:39;6.00;47.70
1135;DHT22;556;53.550;10.048;2022-11-18T15:04:07;6.00;47.70
1135;DHT22;556;53.550;10.048;2022-11-18T15:06:36;6.00;47.70
1135;DHT22;556;53.550;10.048;2022-11-18T15:09:08;6.00;47.70
1135;DHT22;556;53.550;10.048;2022-11-18T15:11:35;5.90;47.60
1135;DHT22;556;53.550;10.048;2022-11-18T15:14:03;5.90;47.60
1135;DHT22;556;53.550;10.048;2022-11-18T15:16:31;5.90;47.60
1135;DHT22;556;53.550;10.048;2022-11-18T15:19:01;5.80;47.50
1135;DHT22;556;53.550;10.048;2022-11-18T15:21:29;5.80;47.50
1135;DHT22;556;53.550;10.048;2022-11-18T15:23:58;5.80;47.60
1135;DHT22;556;53.550;10.048;2022-11-18T15:26:27;5.70;47.50
1135;DHT22;556;53.550;10.048;2022-11-18T15:28:56;5.70;47.60
1135;DHT22;556;53.550;10.048;2022-11-18T15:31:24;5.60;48.50
1135;DHT22;556;53.550;10.048;2022-11-18T15:33:52;5.60;47.50
1135;DHT22;556;53.550;10.048;2022-11-18T15:36:21;5.50;47.40
1135;DHT22;556;53.550;10.048;2022-11-18T15:38:49;5.60;47.60
1135;DHT22;556;53.550;10.048;2022-11-18T15:41:20;5.50;47.50
1135;DHT22;556;53.550;10.048;2022-11-18T15:43:52;5.50;47.50
1135;DHT22;556;53.550;10.048;2022-11-18T15:46:21;5.50;47.50
1135;DHT22;556;53.550;10.048;2022-11-18T15:48:50;5.40;47.50
1135;DHT22;556;53.550;10.048;2022-11-18T15:51:18;5.40;47.50
1135;DHT22;556;53.550;10.048;2022-11-18T15:53:45;5.40;47.50
1135;DHT22;556;53.550;10.048;2022-11-18T16:01:10;5.30;47.50
1135;DHT22;556;53.550;10.048;2022-11-18T16:03:37;5.20;47.50
1135;DHT22;556;53.550;10.048;2022-11-18T16:08:32;5.10;47.50
1135;DHT22;556;53.550;10.048;2022-11-18T16:11:00;5.10;47.50
1135;DHT22;556;53.550;10.048;2022-11-18T16:13:46;5.00;47.50
1135;DHT22;556;53.550;10.048;2022-11-18T16:16:17;5.00;47.50
1135;DHT22;556;53.550;10.048;2022-11-18T16:28:35;4.80;47.50
1135;DHT22;556;53.550;10.048;2022-11-18T16:31:03;4.80;47.50
1135;DHT22;556;53.550;10.048;2022-11-18T16:33:48;4.80;47.50
1135;DHT22;556;53.550;10.048;2022-11-18T16:41:11;4.60;47.40
1135;DHT22;556;53.550;10.048;2022-11-18T16:43:52;4.70;47.50
1135;DHT22;556;53.550;10.048;2022-11-18T16:51:19;4.60;47.40
1135;DHT22;556;53.550;10.048;2022-11-18T16:53:50;4.60;47.40
1135;DHT22;556;53.550;10.048;2022-11-18T16:56:18;4.50;47.40
1135;DHT22;556;53.550;10.048;2022-11-18T16:58:46;4.50;47.40
1135;DHT22;556;53.550;10.048;2022-11-18T17:06:10;4.50;47.40
1135;DHT22;556;53.550;10.048;2022-11-18T17:08:37;4.40;47.00
1135;DHT22;556;53.550;10.048;2022-11-18T17:13:33;4.40;47.40
1135;DHT22;556;53.550;10.048;2022-11-18T17:16:03;4.40;47.40
1135;DHT22;556;53.550;10.048;2022-11-18T17:21:03;4.50;47.50
1135;DHT22;556;53.550;10.048;2022-11-18T17:23:30;4.40;47.90
1135;DHT22;556;53.550;10.048;2022-11-18T17:25:58;4.50;47.40
1135;DHT22;556;53.550;10.048;2022-11-18T17:30:53;4.50;47.40
1135;DHT22;556;53.550;10.048;2022-11-18T17:33:21;4.50;47.40
1135;DHT22;556;53.550;10.048;2022-11-18T17:35:57;4.50;47.40
1135;DHT22;556;53.550;10.048;2022-11-18T17:45:50;4.50;47.50
1135;DHT22;556;53.550;10.048;2022-11-18T17:48:18;4.40;47.40
1135;DHT22;556;53.550;10.048;2022-11-18T17:50:45;4.40;47.80
1135;DHT22;556;53.550;10.048;2022-11-18T17:53:13;4.40;47.50
1135;DHT22;556;53.550;10.048;2022-11-18T17:55:42;4.40;47.50
1135;DHT22;556;53.550;10.048;2022-11-18T17:58:10;4.30;47.40
1135;DHT22;556;53.550;10.048;2022-11-18T18:03:05;4.30;47.50
1135;DHT22;556;53.550;10.048;2022-11-18T18:05:33;4.30;47.50
1135;DHT22;556;53.550;10.048;2022-11-18T18:08:00;4.20;47.40
1135;DHT22;556;53.550;10.048;2022-11-18T18:12:58;4.20;47.40
1135;DHT22;556;53.550;10.048;2022-11-18T18:15:43;4.30;48.00
1135;DHT22;556;53.550;10.048;2022-11-18T18:18:10;4.20;47.50
1135;DHT22;556;53.550;10.048;2022-11-18T18:20:38;4.20;47.50
1135;DHT22;556;53.550;10.048;2022-11-18T18:23:05;4.10;47.40
1135;DHT22;556;53.550;10.048;2022-11-18T18:25:33;4.20;47.50
1135;DHT22;556;53.550;10.048;2022-11-18T18:28:01;4.10;47.40
1135;DHT22;556;53.550;10.048;2022-11-18T18:30:29;4.20;47.50
1135;DHT22;556;53.550;10.048;2022-11-18T18:32:56;4.30;47.50
1135;DHT22;556;53.550;10.048;2022-11-18T18:35:23;4.20;47.40
1135;DHT22;556;53.550;10.048;2022-11-18T18:37:50;4.20;47.80
1135;DHT22;556;53.550;10.048;2022-11-18T18:40:17;4.20;47.40
1135;DHT22;556;53.550;10.048;2022-11-18T18:42:45;4.20;47.50
1135;DHT22;556;53.550;10.048;2022-11-18T18:45:13;4.10;47.40
1135;DHT22;556;53.550;10.048;2022-11-18T18:48:01;4.20;47.50
1135;DHT22;556;53.550;10.048;2022-11-18T18:50:30;4.20;47.80